sensor_id;sensor_type;location;lat;lon;timestamp;P1;durP1;ratioP1;P2;durP2;ratioP2
76157;SDS011;64907;51.574;6.502;2023-10-13T00:01:58;20.83;;;17.52;;
76157;SDS011;64907;51.574;6.502;2023-10-13T00:04:30;23.85;;;16.73;;
76157;SDS011;64907;51.574;6.502;2023-10-13T00:06:57;23.38;;;16.13;;
76157;SDS011;64907;51.574;6.502;2023-10-13T00:09:23;21.67;;;15.52;;
76157;SDS011;64907;51.574;6.502;2023-10-13T00:11:50;22.23;;;15.57;;
76157;SDS011;64907;51.574;6.502;2023-10-13T00:14:17;22.08;;;15.85;;
76157;SDS011;64907;51.574;6.502;2023-10-13T00:16:43;20.05;;;15.55;;
76157;SDS011;64907;51.574;6.502;2023-10-13T00:19:26;19.75;;;15.48;;
76157;SDS011;64907;51.574;6.502;2023-10-13T00:21:52;17.67;;;14.77;;
76157;SDS011;64907;51.574;6.502;2023-10-13T00:24:20;21.58;;;15.32;;
76157;SDS011;64907;51.574;6.502;2023-10-13T00:26:48;23.95;;;14.82;;
76157;SDS011;64907;51.574;6.502;2023-10-13T00:29:16;21.48;;;16.40;;
76157;SDS011;64907;51.574;6.502;2023-10-13T00:31:41;22.20;;;15.02;;
76157;SDS011;64907;51.574;6.502;2023-10-13T00:34:13;19.13;;;14.60;;
76157;SDS011;64907;51.574;6.502;2023-10-13T00:36:45;19.85;;;15.30;;
76157;SDS011;64907;51.574;6.502;2023-10-13T00:39:14;19.55;;;14.55;;
76157;SDS011;64907;51.574;6.502;2023-10-13T00:41:41;19.52;;;14.23;;
76157;SDS011;64907;51.574;6.502;2023-10-13T00:44:17;17.17;;;14.27;;
76157;SDS011;64907;51.574;6.502;2023-10-13T00:46:42;19.65;;;15.18;;
76157;SDS011;64907;51.574;6.502;2023-10-13T00:49:10;19.13;;;15.65;;
76157;SDS011;64907;51.574;6.502;2023-10-13T00:51:35;18.30;;;15.18;;
76157;SDS011;64907;51.574;6.502;2023-10-13T00:54:05;19.23;;;14.40;;
76157;SDS011;64907;51.574;6.502;2023-10-13T00:56:37;21.02;;;15.27;;
76157;SDS011;64907;51.574;6.502;2023-10-13T00:59:05;24.20;;;15.13;;
76157;SDS011;64907;51.574;6.502;2023-10-13T01:01:34;18.00;;;14.25;;
76157;SDS011;64907;51.574;6.502;2023-10-13T01:04:01;21.85;;;16.73;;
76157;SDS011;64907;51.574;6.502;2023-10-13T01:06:28;21.00;;;15.20;;
76157;SDS011;64907;51.574;6.502;2023-10-13T01:09:27;22.45;;;16.23;;
76157;SDS011;64907;51.574;6.502;2023-10-13T01:11:50;20.77;;;16.08;;
76157;SDS011;64907;51.574;6.502;2023-10-13T01:14:21;26.63;;;16.80;;
76157;SDS011;64907;51.574;6.502;2023-10-13T01:16:48;30.00;;;16.20;;
76157;SDS011;64907;51.574;6.502;2023-10-13T01:19:17;25.40;;;17.42;;
76157;SDS011;64907;51.574;6.502;2023-10-13T01:21:44;26.05;;;16.70;;
76157;SDS011;64907;51.574;6.502;2023-10-13T01:24:10;25.25;;;16.55;;
76157;SDS011;64907;51.574;6.502;2023-10-13T01:26:38;19.63;;;16.65;;
76157;SDS011;64907;51.574;6.502;2023-10-13T01:29:05;21.55;;;16.70;;
76157;SDS011;64907;51.574;6.502;2023-10-13T01:31:38;25.30;;;16.65;;
76157;SDS011;64907;51.574;6.502;2023-10-13T01:34:10;27.75;;;18.17;;
76157;SDS011;64907;51.574;6.502;2023-10-13T01:36:38;19.08;;;16.05;;
76157;SDS011;64907;51.574;6.502;2023-10-13T01:39:05;26.80;;;17.50;;
76157;SDS011;64907;51.574;6.502;2023-10-13T01:41:31;26.00;;;18.15;;
76157;SDS011;64907;51.574;6.502;2023-10-13T01:43:56;22.58;;;17.73;;
76157;SDS011;64907;51.574;6.502;2023-10-13T01:46:22;25.00;;;17.80;;
76157;SDS011;64907;51.574;6.502;2023-10-13T01:48:47;22.57;;;17.03;;
76157;SDS011;64907;51.574;6.502;2023-10-13T01:51:12;21.75;;;17.17;;
76157;SDS011;64907;51.574;6.502;2023-10-13T01:53:39;27.05;;;18.58;;
76157;SDS011;64907;51.574;6.502;2023-10-13T01:56:05;27.77;;;18.27;;
76157;SDS011;64907;51.574;6.502;2023-10-13T01:58:35;21.27;;;17.05;;
76157;SDS011;64907;51.574;6.502;2023-10-13T02:01:00;28.35;;;18.55;;
76157;SDS011;64907;51.574;6.502;2023-10-13T02:03:27;27.33;;;19.05;;
76157;SDS011;64907;51.574;6.502;2023-10-13T02:05:55;22.33;;;18.27;;
76157;SDS011;64907;51.574;6.502;2023-10-13T02:08:22;27.55;;;18.83;;
76157;SDS011;64907;51.574;6.502;2023-10-13T02:10:50;28.02;;;20.27;;
76157;SDS011;64907;51.574;6.502;2023-10-13T02:13:15;22.40;;;18.15;;
76157;SDS011;64907;51.574;6.502;2023-10-13T02:15:43;25.17;;;19.55;;
76157;SDS011;64907;51.574;6.502;2023-10-13T02:18:09;27.15;;;19.40;;
76157;SDS011;64907;51.574;6.502;2023-10-13T02:20:34;25.38;;;19.05;;
76157;SDS011;64907;51.574;6.502;2023-10-13T02:23:06;27.75;;;18.95;;
76157;SDS011;64907;51.574;6.502;2023-10-13T02:25:35;24.98;;;17.60;;
76157;SDS011;64907;51.574;6.502;2023-10-13T02:28:01;25.15;;;18.20;;
76157;SDS011;64907;51.574;6.502;2023-10-13T02:30:26;28.85;;;18.58;;
76157;SDS011;64907;51.574;6.502;2023-10-13T02:32:51;23.87;;;17.80;;
76157;SDS011;64907;51.574;6.502;2023-10-13T02:35:18;23.02;;;18.10;;
76157;SDS011;64907;51.574;6.502;2023-10-13T02:37:43;28.60;;;18.93;;
76157;SDS011;64907;51.574;6.502;2023-10-13T02:40:10;24.02;;;17.33;;
76157;SDS011;64907;51.574;6.502;2023-10-13T02:42:35;34.30;;;17.60;;
76157;SDS011;64907;51.574;6.502;2023-10-13T02:45:01;26.52;;;18.10;;
76157;SDS011;64907;51.574;6.502;2023-10-13T02:47:28;23.05;;;17.63;;
76157;SDS011;64907;51.574;6.502;2023-10-13T02:49:56;22.23;;;16.98;;
76157;SDS011;64907;51.574;6.502;2023-10-13T02:52:26;24.08;;;16.02;;
76157;SDS011;64907;51.574;6.502;2023-10-13T02:54:51;22.40;;;15.63;;
76157;SDS011;64907;51.574;6.502;2023-10-13T02:57:17;20.55;;;17.08;;
76157;SDS011;64907;51.574;6.502;2023-10-13T02:59:45;22.10;;;16.70;;
76157;SDS011;64907;51.574;6.502;2023-10-13T03:02:20;26.23;;;18.02;;
76157;SDS011;64907;51.574;6.502;2023-10-13T03:04:55;23.13;;;16.15;;
76157;SDS011;64907;51.574;6.502;2023-10-13T03:07:34;21.80;;;17.38;;
76157;SDS011;64907;51.574;6.502;2023-10-13T03:10:01;26.73;;;19.85;;
76157;SDS011;64907;51.574;6.502;2023-10-13T03:12:34;25.73;;;19.38;;
76157;SDS011;64907;51.574;6.502;2023-10-13T03:15:00;28.77;;;18.40;;
76157;SDS011;64907;51.574;6.502;2023-10-13T03:17:38;27.73;;;19.33;;
76157;SDS011;64907;51.574;6.502;2023-10-13T03:20:08;37.15;;;20.63;;
76157;SDS011;64907;51.574;6.502;2023-10-13T03:22:36;24.25;;;18.25;;
76157;SDS011;64907;51.574;6.502;2023-10-13T03:25:01;27.48;;;20.13;;
76157;SDS011;64907;51.574;6.502;2023-10-13T03:27:30;33.75;;;22.02;;
76157;SDS011;64907;51.574;6.502;2023-10-13T03:30:14;28.48;;;19.33;;
76157;SDS011;64907;51.574;6.502;2023-10-13T03:32:41;26.83;;;20.13;;
76157;SDS011;64907;51.574;6.502;2023-10-13T03:35:11;28.15;;;20.40;;
76157;SDS011;64907;51.574;6.502;2023-10-13T03:37:38;25.63;;;20.13;;
76157;SDS011;64907;51.574;6.502;2023-10-13T03:40:08;32.75;;;21.50;;
76157;SDS011;64907;51.574;6.502;2023-10-13T03:42:42;29.05;;;20.63;;
76157;SDS011;64907;51.574;6.502;2023-10-13T03:45:08;29.33;;;21.23;;
76157;SDS011;64907;51.574;6.502;2023-10-13T03:47:35;24.65;;;18.50;;
76157;SDS011;64907;51.574;6.502;2023-10-13T03:50:03;27.05;;;19.92;;
76157;SDS011;64907;51.574;6.502;2023-10-13T03:52:40;28.83;;;19.60;;
76157;SDS011;64907;51.574;6.502;2023-10-13T03:55:06;30.05;;;19.92;;
76157;SDS011;64907;51.574;6.502;2023-10-13T03:57:33;27.80;;;21.33;;
76157;SDS011;64907;51.574;6.502;2023-10-13T03:59:59;31.02;;;20.92;;
76157;SDS011;64907;51.574;6.502;2023-10-13T04:02:33;30.55;;;22.02;;
76157;SDS011;64907;51.574;6.502;2023-10-13T04:04:58;26.73;;;20.40;;
76157;SDS011;64907;51.574;6.502;2023-10-13T04:07:32;29.48;;;19.75;;
76157;SDS011;64907;51.574;6.502;2023-10-13T04:09:57;23.20;;;18.63;;
76157;SDS011;64907;51.574;6.502;2023-10-13T04:12:45;26.48;;;19.88;;
76157;SDS011;64907;51.574;6.502;2023-10-13T04:15:33;27.85;;;20.23;;
76157;SDS011;64907;51.574;6.502;2023-10-13T04:18:07;26.60;;;20.10;;
76157;SDS011;64907;51.574;6.502;2023-10-13T04:20:53;28.70;;;20.52;;
76157;SDS011;64907;51.574;6.502;2023-10-13T04:23:28;29.88;;;20.70;;
76157;SDS011;64907;51.574;6.502;2023-10-13T04:26:14;33.88;;;22.25;;
76157;SDS011;64907;51.574;6.502;2023-10-13T04:28:46;32.25;;;21.75;;
76157;SDS011;64907;51.574;6.502;2023-10-13T04:31:17;32.45;;;21.23;;
76157;SDS011;64907;51.574;6.502;2023-10-13T04:33:50;24.25;;;18.98;;
76157;SDS011;64907;51.574;6.502;2023-10-13T04:36:17;24.92;;;20.73;;
76157;SDS011;64907;51.574;6.502;2023-10-13T04:38:52;30.08;;;22.10;;
76157;SDS011;64907;51.574;6.502;2023-10-13T04:41:28;32.83;;;22.42;;
76157;SDS011;64907;51.574;6.502;2023-10-13T04:44:00;28.25;;;20.20;;
76157;SDS011;64907;51.574;6.502;2023-10-13T04:46:45;34.17;;;21.55;;
76157;SDS011;64907;51.574;6.502;2023-10-13T04:49:10;27.10;;;20.60;;
76157;SDS011;64907;51.574;6.502;2023-10-13T04:51:53;29.60;;;21.65;;
76157;SDS011;64907;51.574;6.502;2023-10-13T04:54:39;31.55;;;21.55;;
76157;SDS011;64907;51.574;6.502;2023-10-13T04:57:14;29.83;;;21.63;;
76157;SDS011;64907;51.574;6.502;2023-10-13T04:59:50;31.17;;;22.15;;
76157;SDS011;64907;51.574;6.502;2023-10-13T05:02:42;31.40;;;20.45;;
76157;SDS011;64907;51.574;6.502;2023-10-13T05:05:20;27.25;;;18.58;;
76157;SDS011;64907;51.574;6.502;2023-10-13T05:08:04;24.80;;;18.42;;
76157;SDS011;64907;51.574;6.502;2023-10-13T05:10:48;28.83;;;19.33;;
76157;SDS011;64907;51.574;6.502;2023-10-13T05:13:32;28.13;;;20.27;;
76157;SDS011;64907;51.574;6.502;2023-10-13T05:16:16;32.30;;;21.27;;
76157;SDS011;64907;51.574;6.502;2023-10-13T05:19:00;30.98;;;20.23;;
76157;SDS011;64907;51.574;6.502;2023-10-13T05:21:44;29.15;;;20.10;;
76157;SDS011;64907;51.574;6.502;2023-10-13T05:24:28;23.73;;;18.83;;
76157;SDS011;64907;51.574;6.502;2023-10-13T05:27:12;31.58;;;18.08;;
76157;SDS011;64907;51.574;6.502;2023-10-13T05:29:56;26.48;;;17.60;;
76157;SDS011;64907;51.574;6.502;2023-10-13T05:32:40;29.27;;;19.30;;
76157;SDS011;64907;51.574;6.502;2023-10-13T05:35:24;31.70;;;18.13;;
76157;SDS011;64907;51.574;6.502;2023-10-13T05:38:09;31.30;;;17.98;;
76157;SDS011;64907;51.574;6.502;2023-10-13T05:40:53;20.92;;;16.13;;
76157;SDS011;64907;51.574;6.502;2023-10-13T05:43:37;23.40;;;16.60;;
76157;SDS011;64907;51.574;6.502;2023-10-13T05:46:21;21.25;;;14.85;;
76157;SDS011;64907;51.574;6.502;2023-10-13T05:48:52;21.35;;;14.48;;
76157;SDS011;64907;51.574;6.502;2023-10-13T05:51:27;23.88;;;15.23;;
76157;SDS011;64907;51.574;6.502;2023-10-13T05:54:02;18.70;;;14.35;;
76157;SDS011;64907;51.574;6.502;2023-10-13T05:56:39;18.30;;;13.13;;
76157;SDS011;64907;51.574;6.502;2023-10-13T05:59:23;22.58;;;12.38;;
76157;SDS011;64907;51.574;6.502;2023-10-13T06:02:07;13.30;;;11.27;;
76157;SDS011;64907;51.574;6.502;2023-10-13T06:05:05;13.90;;;10.90;;
76157;SDS011;64907;51.574;6.502;2023-10-13T06:07:49;13.85;;;12.27;;
76157;SDS011;64907;51.574;6.502;2023-10-13T06:10:33;14.23;;;11.40;;
76157;SDS011;64907;51.574;6.502;2023-10-13T06:13:17;15.20;;;11.27;;
76157;SDS011;64907;51.574;6.502;2023-10-13T06:16:07;14.00;;;11.43;;
76157;SDS011;64907;51.574;6.502;2023-10-13T06:18:51;11.38;;;9.70;;
76157;SDS011;64907;51.574;6.502;2023-10-13T06:21:35;14.50;;;9.68;;
76157;SDS011;64907;51.574;6.502;2023-10-13T06:24:19;14.70;;;9.13;;
76157;SDS011;64907;51.574;6.502;2023-10-13T06:27:03;12.77;;;8.75;;
76157;SDS011;64907;51.574;6.502;2023-10-13T06:29:47;10.85;;;9.07;;
76157;SDS011;64907;51.574;6.502;2023-10-13T06:32:13;16.98;;;9.45;;
76157;SDS011;64907;51.574;6.502;2023-10-13T06:34:40;14.85;;;10.18;;
76157;SDS011;64907;51.574;6.502;2023-10-13T06:37:14;13.55;;;8.98;;
76157;SDS011;64907;51.574;6.502;2023-10-13T06:39:56;18.73;;;10.02;;
76157;SDS011;64907;51.574;6.502;2023-10-13T06:42:28;13.68;;;9.10;;
76157;SDS011;64907;51.574;6.502;2023-10-13T06:44:56;15.80;;;9.25;;
76157;SDS011;64907;51.574;6.502;2023-10-13T06:47:22;12.02;;;8.85;;
76157;SDS011;64907;51.574;6.502;2023-10-13T06:49:47;13.57;;;8.68;;
76157;SDS011;64907;51.574;6.502;2023-10-13T06:52:17;14.50;;;9.60;;
76157;SDS011;64907;51.574;6.502;2023-10-13T06:54:42;14.93;;;8.65;;
76157;SDS011;64907;51.574;6.502;2023-10-13T06:57:08;13.07;;;8.48;;
76157;SDS011;64907;51.574;6.502;2023-10-13T06:59:39;19.92;;;8.88;;
76157;SDS011;64907;51.574;6.502;2023-10-13T07:02:06;12.27;;;7.68;;
76157;SDS011;64907;51.574;6.502;2023-10-13T07:04:34;16.65;;;7.75;;
76157;SDS011;64907;51.574;6.502;2023-10-13T07:07:02;14.50;;;7.60;;
76157;SDS011;64907;51.574;6.502;2023-10-13T07:09:31;19.75;;;7.03;;
76157;SDS011;64907;51.574;6.502;2023-10-13T07:11:59;12.80;;;6.65;;
76157;SDS011;64907;51.574;6.502;2023-10-13T07:14:26;12.13;;;7.13;;
76157;SDS011;64907;51.574;6.502;2023-10-13T07:16:55;14.07;;;6.28;;
76157;SDS011;64907;51.574;6.502;2023-10-13T07:19:23;16.50;;;7.80;;
76157;SDS011;64907;51.574;6.502;2023-10-13T07:21:50;12.60;;;7.13;;
76157;SDS011;64907;51.574;6.502;2023-10-13T07:24:23;12.50;;;7.78;;
76157;SDS011;64907;51.574;6.502;2023-10-13T07:26:49;19.63;;;7.90;;
76157;SDS011;64907;51.574;6.502;2023-10-13T07:29:26;19.00;;;7.30;;
76157;SDS011;64907;51.574;6.502;2023-10-13T07:31:52;18.17;;;6.80;;
76157;SDS011;64907;51.574;6.502;2023-10-13T07:34:17;13.60;;;7.37;;
76157;SDS011;64907;51.574;6.502;2023-10-13T07:36:54;12.60;;;7.07;;
76157;SDS011;64907;51.574;6.502;2023-10-13T07:39:29;15.50;;;8.40;;
76157;SDS011;64907;51.574;6.502;2023-10-13T07:41:58;14.30;;;7.80;;
76157;SDS011;64907;51.574;6.502;2023-10-13T07:44:30;18.38;;;7.38;;
76157;SDS011;64907;51.574;6.502;2023-10-13T07:47:02;14.93;;;7.25;;
76157;SDS011;64907;51.574;6.502;2023-10-13T07:49:33;18.27;;;7.43;;
76157;SDS011;64907;51.574;6.502;2023-10-13T07:52:01;15.77;;;7.15;;
76157;SDS011;64907;51.574;6.502;2023-10-13T07:54:41;15.38;;;6.93;;
76157;SDS011;64907;51.574;6.502;2023-10-13T07:57:08;17.02;;;7.57;;
76157;SDS011;64907;51.574;6.502;2023-10-13T07:59:33;12.05;;;7.07;;
76157;SDS011;64907;51.574;6.502;2023-10-13T08:02:00;13.52;;;6.80;;
76157;SDS011;64907;51.574;6.502;2023-10-13T08:04:37;17.00;;;7.60;;
76157;SDS011;64907;51.574;6.502;2023-10-13T08:07:03;13.75;;;7.15;;
76157;SDS011;64907;51.574;6.502;2023-10-13T08:09:41;13.40;;;6.70;;
76157;SDS011;64907;51.574;6.502;2023-10-13T08:12:08;16.10;;;6.95;;
76157;SDS011;64907;51.574;6.502;2023-10-13T08:14:36;14.85;;;6.78;;
76157;SDS011;64907;51.574;6.502;2023-10-13T08:17:06;10.85;;;6.82;;
76157;SDS011;64907;51.574;6.502;2023-10-13T08:19:35;17.65;;;6.97;;
76157;SDS011;64907;51.574;6.502;2023-10-13T08:22:09;12.75;;;6.53;;
76157;SDS011;64907;51.574;6.502;2023-10-13T08:24:44;17.52;;;7.07;;
76157;SDS011;64907;51.574;6.502;2023-10-13T08:27:09;12.48;;;6.50;;
76157;SDS011;64907;51.574;6.502;2023-10-13T08:29:57;17.42;;;7.30;;
76157;SDS011;64907;51.574;6.502;2023-10-13T08:32:23;11.30;;;6.20;;
76157;SDS011;64907;51.574;6.502;2023-10-13T08:34:49;13.77;;;6.63;;
76157;SDS011;64907;51.574;6.502;2023-10-13T08:37:34;12.60;;;6.40;;
76157;SDS011;64907;51.574;6.502;2023-10-13T08:40:18;12.95;;;5.50;;
76157;SDS011;64907;51.574;6.502;2023-10-13T08:43:05;9.02;;;5.88;;
76157;SDS011;64907;51.574;6.502;2023-10-13T08:45:31;17.38;;;6.63;;
76157;SDS011;64907;51.574;6.502;2023-10-13T08:48:00;14.07;;;5.90;;
76157;SDS011;64907;51.574;6.502;2023-10-13T08:50:42;10.98;;;6.45;;
76157;SDS011;64907;51.574;6.502;2023-10-13T08:55:57;19.40;;;6.43;;
76157;SDS011;64907;51.574;6.502;2023-10-13T08:58:36;12.25;;;6.18;;
76157;SDS011;64907;51.574;6.502;2023-10-13T09:01:26;12.13;;;5.70;;
76157;SDS011;64907;51.574;6.502;2023-10-13T09:04:14;12.05;;;6.53;;
76157;SDS011;64907;51.574;6.502;2023-10-13T09:06:44;12.45;;;5.35;;
76157;SDS011;64907;51.574;6.502;2023-10-13T09:09:12;11.88;;;6.35;;
76157;SDS011;64907;51.574;6.502;2023-10-13T09:11:51;9.05;;;6.32;;
76157;SDS011;64907;51.574;6.502;2023-10-13T09:14:29;13.80;;;5.97;;
76157;SDS011;64907;51.574;6.502;2023-10-13T09:17:02;20.33;;;6.53;;
76157;SDS011;64907;51.574;6.502;2023-10-13T09:19:42;12.02;;;5.97;;
76157;SDS011;64907;51.574;6.502;2023-10-13T09:22:14;14.57;;;6.35;;
76157;SDS011;64907;51.574;6.502;2023-10-13T09:24:50;9.52;;;5.65;;
76157;SDS011;64907;51.574;6.502;2023-10-13T09:27:16;16.48;;;5.63;;
76157;SDS011;64907;51.574;6.502;2023-10-13T09:29:41;16.47;;;6.30;;
76157;SDS011;64907;51.574;6.502;2023-10-13T09:32:07;14.27;;;6.47;;
76157;SDS011;64907;51.574;6.502;2023-10-13T09:34:36;11.45;;;5.70;;
76157;SDS011;64907;51.574;6.502;2023-10-13T09:37:05;12.05;;;6.47;;
76157;SDS011;64907;51.574;6.502;2023-10-13T09:39:31;17.55;;;6.18;;
76157;SDS011;64907;51.574;6.502;2023-10-13T09:42:09;10.10;;;5.80;;
76157;SDS011;64907;51.574;6.502;2023-10-13T09:44:35;10.98;;;5.65;;
76157;SDS011;64907;51.574;6.502;2023-10-13T09:47:02;10.20;;;5.35;;
76157;SDS011;64907;51.574;6.502;2023-10-13T09:49:43;8.93;;;5.88;;
76157;SDS011;64907;51.574;6.502;2023-10-13T09:52:17;15.02;;;6.70;;
76157;SDS011;64907;51.574;6.502;2023-10-13T09:54:56;13.05;;;5.68;;
76157;SDS011;64907;51.574;6.502;2023-10-13T09:57:34;11.23;;;6.00;;
76157;SDS011;64907;51.574;6.502;2023-10-13T10:00:19;14.85;;;6.10;;
76157;SDS011;64907;51.574;6.502;2023-10-13T10:03:10;14.65;;;6.57;;
76157;SDS011;64907;51.574;6.502;2023-10-13T10:06:01;12.95;;;6.50;;
76157;SDS011;64907;51.574;6.502;2023-10-13T10:08:49;12.23;;;6.63;;
76157;SDS011;64907;51.574;6.502;2023-10-13T10:16:10;10.57;;;6.33;;
76157;SDS011;64907;51.574;6.502;2023-10-13T10:18:40;15.43;;;6.20;;
76157;SDS011;64907;51.574;6.502;2023-10-13T10:21:06;9.23;;;6.43;;
76157;SDS011;64907;51.574;6.502;2023-10-13T10:23:38;14.40;;;6.57;;
76157;SDS011;64907;51.574;6.502;2023-10-13T10:26:12;13.55;;;6.32;;
76157;SDS011;64907;51.574;6.502;2023-10-13T10:28:41;10.20;;;6.75;;
76157;SDS011;64907;51.574;6.502;2023-10-13T10:31:07;13.55;;;6.85;;
76157;SDS011;64907;51.574;6.502;2023-10-13T10:33:47;16.75;;;6.93;;
76157;SDS011;64907;51.574;6.502;2023-10-13T10:36:15;10.68;;;6.05;;
76157;SDS011;64907;51.574;6.502;2023-10-13T10:38:51;14.98;;;6.88;;
76157;SDS011;64907;51.574;6.502;2023-10-13T10:41:17;9.43;;;6.80;;
76157;SDS011;64907;51.574;6.502;2023-10-13T10:43:50;17.23;;;6.63;;
76157;SDS011;64907;51.574;6.502;2023-10-13T10:46:25;9.83;;;6.40;;
76157;SDS011;64907;51.574;6.502;2023-10-13T10:48:51;8.82;;;5.93;;
76157;SDS011;64907;51.574;6.502;2023-10-13T10:51:21;12.45;;;6.55;;
76157;SDS011;64907;51.574;6.502;2023-10-13T10:53:47;25.50;;;7.40;;
76157;SDS011;64907;51.574;6.502;2023-10-13T10:56:14;10.57;;;6.50;;
76157;SDS011;64907;51.574;6.502;2023-10-13T11:01:21;16.17;;;6.82;;
76157;SDS011;64907;51.574;6.502;2023-10-13T11:06:26;10.13;;;6.75;;
76157;SDS011;64907;51.574;6.502;2023-10-13T11:09:01;15.45;;;6.47;;
76157;SDS011;64907;51.574;6.502;2023-10-13T11:11:30;15.55;;;6.65;;
76157;SDS011;64907;51.574;6.502;2023-10-13T11:14:00;9.93;;;6.50;;
76157;SDS011;64907;51.574;6.502;2023-10-13T11:16:48;15.80;;;6.78;;
76157;SDS011;64907;51.574;6.502;2023-10-13T11:19:19;14.73;;;7.03;;
76157;SDS011;64907;51.574;6.502;2023-10-13T11:21:53;11.43;;;6.50;;
76157;SDS011;64907;51.574;6.502;2023-10-13T11:24:19;10.88;;;6.70;;
76157;SDS011;64907;51.574;6.502;2023-10-13T11:26:46;21.10;;;6.63;;
76157;SDS011;64907;51.574;6.502;2023-10-13T11:29:18;10.48;;;6.22;;
76157;SDS011;64907;51.574;6.502;2023-10-13T11:31:46;7.85;;;6.60;;
76157;SDS011;64907;51.574;6.502;2023-10-13T11:34:11;14.43;;;7.35;;
76157;SDS011;64907;51.574;6.502;2023-10-13T11:36:36;10.82;;;6.40;;
76157;SDS011;64907;51.574;6.502;2023-10-13T11:39:01;15.07;;;6.90;;
76157;SDS011;64907;51.574;6.502;2023-10-13T11:41:27;12.30;;;6.20;;
76157;SDS011;64907;51.574;6.502;2023-10-13T11:43:59;16.77;;;6.55;;
76157;SDS011;64907;51.574;6.502;2023-10-13T11:46:38;12.23;;;6.55;;
76157;SDS011;64907;51.574;6.502;2023-10-13T11:49:11;10.45;;;6.18;;
76157;SDS011;64907;51.574;6.502;2023-10-13T11:51:43;15.57;;;6.53;;
76157;SDS011;64907;51.574;6.502;2023-10-13T11:54:15;15.80;;;5.70;;
76157;SDS011;64907;51.574;6.502;2023-10-13T11:56:42;12.30;;;6.43;;
76157;SDS011;64907;51.574;6.502;2023-10-13T11:59:07;9.90;;;6.63;;
76157;SDS011;64907;51.574;6.502;2023-10-13T12:01:41;12.77;;;6.65;;
76157;SDS011;64907;51.574;6.502;2023-10-13T12:04:25;15.80;;;6.57;;
76157;SDS011;64907;51.574;6.502;2023-10-13T12:07:05;22.05;;;6.47;;
76157;SDS011;64907;51.574;6.502;2023-10-13T12:09:50;16.10;;;6.45;;
76157;SDS011;64907;51.574;6.502;2023-10-13T12:12:25;9.02;;;6.55;;
76157;SDS011;64907;51.574;6.502;2023-10-13T12:14:50;13.60;;;6.60;;
76157;SDS011;64907;51.574;6.502;2023-10-13T12:17:25;22.85;;;7.03;;
76157;SDS011;64907;51.574;6.502;2023-10-13T12:19:53;15.80;;;6.50;;
76157;SDS011;64907;51.574;6.502;2023-10-13T12:22:18;13.30;;;6.43;;
76157;SDS011;64907;51.574;6.502;2023-10-13T12:24:52;22.60;;;6.80;;
76157;SDS011;64907;51.574;6.502;2023-10-13T12:27:20;27.33;;;6.80;;
76157;SDS011;64907;51.574;6.502;2023-10-13T12:29:51;12.30;;;6.43;;
76157;SDS011;64907;51.574;6.502;2023-10-13T12:32:17;21.48;;;6.13;;
76157;SDS011;64907;51.574;6.502;2023-10-13T12:34:56;14.85;;;6.05;;
76157;SDS011;64907;51.574;6.502;2023-10-13T12:37:22;15.82;;;6.00;;
76157;SDS011;64907;51.574;6.502;2023-10-13T12:40:06;16.42;;;6.63;;
76157;SDS011;64907;51.574;6.502;2023-10-13T12:42:50;17.35;;;5.40;;
76157;SDS011;64907;51.574;6.502;2023-10-13T12:45:38;20.25;;;8.23;;
76157;SDS011;64907;51.574;6.502;2023-10-13T12:48:22;16.20;;;6.40;;
76157;SDS011;64907;51.574;6.502;2023-10-13T12:51:06;12.65;;;6.55;;
76157;SDS011;64907;51.574;6.502;2023-10-13T12:53:51;18.42;;;6.97;;
76157;SDS011;64907;51.574;6.502;2023-10-13T12:56:17;14.55;;;6.72;;
76157;SDS011;64907;51.574;6.502;2023-10-13T12:58:42;16.35;;;6.18;;
76157;SDS011;64907;51.574;6.502;2023-10-13T13:01:16;17.58;;;6.97;;
76157;SDS011;64907;51.574;6.502;2023-10-13T13:03:45;14.52;;;7.22;;
76157;SDS011;64907;51.574;6.502;2023-10-13T13:06:21;23.92;;;7.55;;
76157;SDS011;64907;51.574;6.502;2023-10-13T13:08:53;11.75;;;6.05;;
76157;SDS011;64907;51.574;6.502;2023-10-13T13:11:20;17.30;;;6.80;;
76157;SDS011;64907;51.574;6.502;2023-10-13T13:13:45;17.73;;;7.30;;
76157;SDS011;64907;51.574;6.502;2023-10-13T13:16:11;17.05;;;6.35;;
76157;SDS011;64907;51.574;6.502;2023-10-13T13:18:36;12.98;;;6.55;;
76157;SDS011;64907;51.574;6.502;2023-10-13T13:21:02;15.68;;;6.35;;
76157;SDS011;64907;51.574;6.502;2023-10-13T13:23:31;18.55;;;6.88;;
76157;SDS011;64907;51.574;6.502;2023-10-13T13:25:56;23.45;;;6.95;;
76157;SDS011;64907;51.574;6.502;2023-10-13T13:28:21;15.80;;;6.60;;
76157;SDS011;64907;51.574;6.502;2023-10-13T13:30:49;18.35;;;6.82;;
76157;SDS011;64907;51.574;6.502;2023-10-13T13:33:17;17.17;;;7.43;;
76157;SDS011;64907;51.574;6.502;2023-10-13T13:35:48;16.45;;;6.25;;
76157;SDS011;64907;51.574;6.502;2023-10-13T13:38:15;20.73;;;6.20;;
76157;SDS011;64907;51.574;6.502;2023-10-13T13:40:54;16.65;;;6.15;;
76157;SDS011;64907;51.574;6.502;2023-10-13T13:43:20;13.90;;;5.80;;
76157;SDS011;64907;51.574;6.502;2023-10-13T13:46:05;14.85;;;6.00;;
76157;SDS011;64907;51.574;6.502;2023-10-13T13:48:35;11.52;;;5.72;;
76157;SDS011;64907;51.574;6.502;2023-10-13T13:51:03;15.75;;;5.60;;
76157;SDS011;64907;51.574;6.502;2023-10-13T13:53:31;15.07;;;5.90;;
76157;SDS011;64907;51.574;6.502;2023-10-13T13:56:03;20.33;;;6.30;;
76157;SDS011;64907;51.574;6.502;2023-10-13T13:58:28;19.80;;;6.30;;
76157;SDS011;64907;51.574;6.502;2023-10-13T14:00:59;16.95;;;5.80;;
76157;SDS011;64907;51.574;6.502;2023-10-13T14:03:25;17.45;;;6.10;;
76157;SDS011;64907;51.574;6.502;2023-10-13T14:05:58;14.98;;;5.80;;
76157;SDS011;64907;51.574;6.502;2023-10-13T14:08:24;20.50;;;5.88;;
76157;SDS011;64907;51.574;6.502;2023-10-13T14:10:50;25.63;;;6.75;;
76157;SDS011;64907;51.574;6.502;2023-10-13T14:13:36;11.88;;;5.78;;
76157;SDS011;64907;51.574;6.502;2023-10-13T14:16:14;18.23;;;5.68;;
76157;SDS011;64907;51.574;6.502;2023-10-13T14:18:45;15.40;;;5.88;;
76157;SDS011;64907;51.574;6.502;2023-10-13T14:21:11;9.20;;;5.68;;
76157;SDS011;64907;51.574;6.502;2023-10-13T14:23:41;15.68;;;5.28;;
76157;SDS011;64907;51.574;6.502;2023-10-13T14:26:07;13.25;;;5.03;;
76157;SDS011;64907;51.574;6.502;2023-10-13T14:28:34;13.93;;;5.40;;
76157;SDS011;64907;51.574;6.502;2023-10-13T14:31:03;17.15;;;5.75;;
76157;SDS011;64907;51.574;6.502;2023-10-13T14:33:34;17.63;;;6.40;;
76157;SDS011;64907;51.574;6.502;2023-10-13T14:36:02;18.95;;;6.78;;
76157;SDS011;64907;51.574;6.502;2023-10-13T14:38:29;15.95;;;5.45;;
76157;SDS011;64907;51.574;6.502;2023-10-13T14:40:57;17.07;;;6.33;;
76157;SDS011;64907;51.574;6.502;2023-10-13T14:43:23;15.52;;;5.85;;
76157;SDS011;64907;51.574;6.502;2023-10-13T14:45:55;13.43;;;5.60;;
76157;SDS011;64907;51.574;6.502;2023-10-13T14:48:21;13.38;;;5.75;;
76157;SDS011;64907;51.574;6.502;2023-10-13T14:50:49;16.13;;;6.30;;
76157;SDS011;64907;51.574;6.502;2023-10-13T14:53:15;13.20;;;7.03;;
76157;SDS011;64907;51.574;6.502;2023-10-13T14:55:44;14.52;;;5.63;;
76157;SDS011;64907;51.574;6.502;2023-10-13T14:58:09;14.02;;;5.82;;
76157;SDS011;64907;51.574;6.502;2023-10-13T15:00:37;12.70;;;5.63;;
76157;SDS011;64907;51.574;6.502;2023-10-13T15:03:03;13.02;;;5.95;;
76157;SDS011;64907;51.574;6.502;2023-10-13T15:05:31;15.25;;;5.68;;
76157;SDS011;64907;51.574;6.502;2023-10-13T15:07:58;14.00;;;5.45;;
76157;SDS011;64907;51.574;6.502;2023-10-13T15:10:23;12.85;;;5.60;;